sensor_id;sensor_type;location;lat;lon;timestamp;temperature;humidity
49465;DHT22;35358;49.342;8.802;2022-11-24T00:01:04;8.00;99.90
49465;DHT22;35358;49.342;8.802;2022-11-24T00:03:30;8.10;99.90
49465;DHT22;35358;49.342;8.802;2022-11-24T00:06:00;8.00;99.90
49465;DHT22;35358;49.342;8.802;2022-11-24T00:08:28;8.00;99.90
49465;DHT22;35358;49.342;8.802;2022-11-24T00:10:54;8.00;99.90
49465;DHT22;35358;49.342;8.802;2022-11-24T00:13:19;8.10;99.90
49465;DHT22;35358;49.342;8.802;2022-11-24T00:15:45;8.10;99.90
49465;DHT22;35358;49.342;8.802;2022-11-24T00:18:13;8.10;99.90
49465;DHT22;35358;49.342;8.802;2022-11-24T00:20:43;8.10;99.90
49465;DHT22;35358;49.342;8.802;2022-11-24T00:23:15;8.20;99.90
49465;DHT22;35358;49.342;8.802;2022-11-24T00:25:43;8.20;99.90
49465;DHT22;35358;49.342;8.802;2022-11-24T00:28:09;8.20;99.90
49465;DHT22;35358;49.342;8.802;2022-11-24T00:30:34;8.30;99.90
49465;DHT22;35358;49.342;8.802;2022-11-24T00:33:02;8.30;99.90
49465;DHT22;35358;49.342;8.802;2022-11-24T00:35:28;8.30;99.90
49465;DHT22;35358;49.342;8.802;2022-11-24T00:37:55;8.30;99.90
49465;DHT22;35358;49.342;8.802;2022-11-24T00:40:23;8.30;99.90
49465;DHT22;35358;49.342;8.802;2022-11-24T00:42:49;8.30;99.90
49465;DHT22;35358;49.342;8.802;2022-11-24T00:45:16;8.30;99.90
49465;DHT22;35358;49.342;8.802;2022-11-24T00:47:42;8.30;99.90
49465;DHT22;35358;49.342;8.802;2022-11-24T00:50:08;8.30;99.90
49465;DHT22;35358;49.342;8.802;2022-11-24T00:52:36;8.30;99.90
49465;DHT22;35358;49.342;8.802;2022-11-24T00:55:02;8.30;99.90
49465;DHT22;35358;49.342;8.802;2022-11-24T00:57:27;8.30;99.90
49465;DHT22;35358;49.342;8.802;2022-11-24T00:59:53;8.30;99.90
49465;DHT22;35358;49.342;8.802;2022-11-24T01:02:18;8.30;99.90
49465;DHT22;35358;49.342;8.802;2022-11-24T01:04:46;8.30;99.90
49465;DHT22;35358;49.342;8.802;2022-11-24T01:07:12;8.30;99.90
49465;DHT22;35358;49.342;8.802;2022-11-24T01:09:37;8.30;99.90
49465;DHT22;35358;49.342;8.802;2022-11-24T01:12:03;8.20;99.90
49465;DHT22;35358;49.342;8.802;2022-11-24T01:14:30;8.20;99.90
49465;DHT22;35358;49.342;8.802;2022-11-24T01:16:56;8.30;99.90
49465;DHT22;35358;49.342;8.802;2022-11-24T01:19:24;8.20;99.90
49465;DHT22;35358;49.342;8.802;2022-11-24T01:21:52;8.30;99.90
49465;DHT22;35358;49.342;8.802;2022-11-24T01:24:20;8.30;99.90
49465;DHT22;35358;49.342;8.802;2022-11-24T01:26:48;8.30;99.90
49465;DHT22;35358;49.342;8.802;2022-11-24T01:29:16;8.30;99.90
49465;DHT22;35358;49.342;8.802;2022-11-24T01:31:41;8.30;99.90
49465;DHT22;35358;49.342;8.802;2022-11-24T01:34:09;8.30;99.90
49465;DHT22;35358;49.342;8.802;2022-11-24T01:36:35;8.40;99.90
49465;DHT22;35358;49.342;8.802;2022-11-24T01:39:03;8.40;99.90
49465;DHT22;35358;49.342;8.802;2022-11-24T01:41:28;8.40;99.90
49465;DHT22;35358;49.342;8.802;2022-11-24T01:43:55;8.30;99.90
49465;DHT22;35358;49.342;8.802;2022-11-24T01:46:42;8.30;99.90
49465;DHT22;35358;49.342;8.802;2022-11-24T01:49:15;8.30;99.90
49465;DHT22;35358;49.342;8.802;2022-11-24T01:51:57;8.30;99.90
49465;DHT22;35358;49.342;8.802;2022-11-24T01:54:41;8.30;99.90
49465;DHT22;35358;49.342;8.802;2022-11-24T01:57:42;8.30;99.90
49465;DHT22;35358;49.342;8.802;2022-11-24T02:00:13;8.30;99.90
49465;DHT22;35358;49.342;8.802;2022-11-24T02:02:42;8.30;99.90
49465;DHT22;35358;49.342;8.802;2022-11-24T02:05:52;8.30;99.90
49465;DHT22;35358;49.342;8.802;2022-11-24T02:07:59;8.40;99.90
49465;DHT22;35358;49.342;8.802;2022-11-24T02:10:26;8.40;99.90
49465;DHT22;35358;49.342;8.802;2022-11-24T02:12:54;8.40;99.90
49465;DHT22;35358;49.342;8.802;2022-11-24T02:15:23;8.30;99.90
49465;DHT22;35358;49.342;8.802;2022-11-24T02:17:49;8.40;99.90
49465;DHT22;35358;49.342;8.802;2022-11-24T02:20:17;8.40;99.90
49465;DHT22;35358;49.342;8.802;2022-11-24T02:27:53;8.50;99.90
49465;DHT22;35358;49.342;8.802;2022-11-24T02:30:22;8.50;99.90
49465;DHT22;35358;49.342;8.802;2022-11-24T02:32:49;8.50;99.90
49465;DHT22;35358;49.342;8.802;2022-11-24T02:35:18;8.50;99.90
49465;DHT22;35358;49.342;8.802;2022-11-24T02:37:46;8.50;99.90
49465;DHT22;35358;49.342;8.802;2022-11-24T02:40:20;8.40;99.90
49465;DHT22;35358;49.342;8.802;2022-11-24T02:42:50;8.50;99.90
49465;DHT22;35358;49.342;8.802;2022-11-24T02:45:17;8.50;99.90
49465;DHT22;35358;49.342;8.802;2022-11-24T02:47:45;8.50;99.90
49465;DHT22;35358;49.342;8.802;2022-11-24T02:50:11;8.50;99.90
49465;DHT22;35358;49.342;8.802;2022-11-24T02:52:37;8.50;99.90
49465;DHT22;35358;49.342;8.802;2022-11-24T02:55:05;8.50;99.90
49465;DHT22;35358;49.342;8.802;2022-11-24T02:57:31;8.50;99.90
49465;DHT22;35358;49.342;8.802;2022-11-24T02:59:59;8.50;99.90
49465;DHT22;35358;49.342;8.802;2022-11-24T03:02:27;8.50;99.90
49465;DHT22;35358;49.342;8.802;2022-11-24T03:04:52;8.50;99.90
49465;DHT22;35358;49.342;8.802;2022-11-24T03:07:18;8.40;99.90
49465;DHT22;35358;49.342;8.802;2022-11-24T03:09:46;8.40;99.90
49465;DHT22;35358;49.342;8.802;2022-11-24T03:12:11;8.40;99.90
49465;DHT22;35358;49.342;8.802;2022-11-24T03:14:37;8.40;99.90
49465;DHT22;35358;49.342;8.802;2022-11-24T03:17:02;8.40;99.90
49465;DHT22;35358;49.342;8.802;2022-11-24T03:19:28;8.40;99.90
49465;DHT22;35358;49.342;8.802;2022-11-24T03:21:57;8.40;99.90
49465;DHT22;35358;49.342;8.802;2022-11-24T03:24:23;8.40;99.90
49465;DHT22;35358;49.342;8.802;2022-11-24T03:26:48;8.40;99.90
49465;DHT22;35358;49.342;8.802;2022-11-24T03:29:14;8.50;99.90
49465;DHT22;35358;49.342;8.802;2022-11-24T03:31:42;8.60;99.90
49465;DHT22;35358;49.342;8.802;2022-11-24T03:34:08;8.50;99.90
49465;DHT22;35358;49.342;8.802;2022-11-24T03:36:33;8.50;99.90
49465;DHT22;35358;49.342;8.802;2022-11-24T03:38:59;8.60;99.90
49465;DHT22;35358;49.342;8.802;2022-11-24T03:41:27;8.60;99.90
49465;DHT22;35358;49.342;8.802;2022-11-24T03:43:53;8.60;99.90
49465;DHT22;35358;49.342;8.802;2022-11-24T03:46:18;8.60;99.90
49465;DHT22;35358;49.342;8.802;2022-11-24T03:48:44;8.50;99.90
49465;DHT22;35358;49.342;8.802;2022-11-24T03:51:09;8.60;99.90
49465;DHT22;35358;49.342;8.802;2022-11-24T03:53:38;8.60;99.90
49465;DHT22;35358;49.342;8.802;2022-11-24T03:56:04;8.60;99.90
49465;DHT22;35358;49.342;8.802;2022-11-24T03:58:30;8.60;99.90
49465;DHT22;35358;49.342;8.802;2022-11-24T04:00:56;8.70;99.90
49465;DHT22;35358;49.342;8.802;2022-11-24T04:03:24;8.70;99.90
49465;DHT22;35358;49.342;8.802;2022-11-24T04:05:50;8.70;99.90
49465;DHT22;35358;49.342;8.802;2022-11-24T04:08:16;8.70;99.90
49465;DHT22;35358;49.342;8.802;2022-11-24T04:10:47;8.80;99.90
49465;DHT22;35358;49.342;8.802;2022-11-24T04:13:15;8.80;99.90
49465;DHT22;35358;49.342;8.802;2022-11-24T04:15:42;8.70;99.90
49465;DHT22;35358;49.342;8.802;2022-11-24T04:18:11;8.70;99.90
49465;DHT22;35358;49.342;8.802;2022-11-24T04:20:37;8.70;99.90
49465;DHT22;35358;49.342;8.802;2022-11-24T04:23:05;8.70;99.90
49465;DHT22;35358;49.342;8.802;2022-11-24T04:25:31;8.70;99.90
49465;DHT22;35358;49.342;8.802;2022-11-24T04:27:57;8.70;99.90
49465;DHT22;35358;49.342;8.802;2022-11-24T04:30:26;8.80;99.90
49465;DHT22;35358;49.342;8.802;2022-11-24T04:32:52;8.80;99.90
49465;DHT22;35358;49.342;8.802;2022-11-24T04:35:18;8.90;99.90
49465;DHT22;35358;49.342;8.802;2022-11-24T04:37:48;8.90;99.90
49465;DHT22;35358;49.342;8.802;2022-11-24T04:40:14;8.80;99.90
49465;DHT22;35358;49.342;8.802;2022-11-24T04:42:40;8.90;99.90
49465;DHT22;35358;49.342;8.802;2022-11-24T04:45:09;8.90;99.90
49465;DHT22;35358;49.342;8.802;2022-11-24T04:47:39;8.90;99.90
49465;DHT22;35358;49.342;8.802;2022-11-24T04:50:05;8.80;99.90
49465;DHT22;35358;49.342;8.802;2022-11-24T04:52:34;8.80;99.90
49465;DHT22;35358;49.342;8.802;2022-11-24T04:54:59;8.80;99.90
49465;DHT22;35358;49.342;8.802;2022-11-24T04:57:27;8.80;99.90
49465;DHT22;35358;49.342;8.802;2022-11-24T04:59:53;8.70;99.90
49465;DHT22;35358;49.342;8.802;2022-11-24T05:02:22;8.80;99.90
49465;DHT22;35358;49.342;8.802;2022-11-24T05:04:47;8.80;99.90
49465;DHT22;35358;49.342;8.802;2022-11-24T05:07:14;8.70;99.90
49465;DHT22;35358;49.342;8.802;2022-11-24T05:09:39;8.70;99.90
49465;DHT22;35358;49.342;8.802;2022-11-24T05:12:24;8.80;99.90
49465;DHT22;35358;49.342;8.802;2022-11-24T05:14:59;8.80;99.90
49465;DHT22;35358;49.342;8.802;2022-11-24T05:17:33;8.80;99.90
49465;DHT22;35358;49.342;8.802;2022-11-24T05:19:59;8.80;99.90
49465;DHT22;35358;49.342;8.802;2022-11-24T05:22:25;8.90;99.90
49465;DHT22;35358;49.342;8.802;2022-11-24T05:24:52;8.90;99.90
49465;DHT22;35358;49.342;8.802;2022-11-24T05:27:20;8.90;99.90
49465;DHT22;35358;49.342;8.802;2022-11-24T05:29:47;8.80;99.90
49465;DHT22;35358;49.342;8.802;2022-11-24T05:32:13;8.90;99.90
49465;DHT22;35358;49.342;8.802;2022-11-24T05:34:39;8.80;99.90
49465;DHT22;35358;49.342;8.802;2022-11-24T05:37:04;8.90;99.90
49465;DHT22;35358;49.342;8.802;2022-11-24T05:39:31;8.80;99.90
49465;DHT22;35358;49.342;8.802;2022-11-24T05:42:03;8.90;99.90
49465;DHT22;35358;49.342;8.802;2022-11-24T05:44:49;8.90;99.90
49465;DHT22;35358;49.342;8.802;2022-11-24T05:47:17;8.90;99.90
49465;DHT22;35358;49.342;8.802;2022-11-24T05:49:46;8.90;99.90
49465;DHT22;35358;49.342;8.802;2022-11-24T05:52:12;8.90;99.90
49465;DHT22;35358;49.342;8.802;2022-11-24T05:54:37;8.90;99.90
49465;DHT22;35358;49.342;8.802;2022-11-24T05:57:03;8.90;99.90
49465;DHT22;35358;49.342;8.802;2022-11-24T05:59:31;8.90;99.90
49465;DHT22;35358;49.342;8.802;2022-11-24T06:01:59;8.90;99.90
49465;DHT22;35358;49.342;8.802;2022-11-24T06:04:30;9.00;99.90
49465;DHT22;35358;49.342;8.802;2022-11-24T06:06:56;8.90;99.90
49465;DHT22;35358;49.342;8.802;2022-11-24T06:09:21;8.90;99.90
49465;DHT22;35358;49.342;8.802;2022-11-24T06:11:47;8.90;99.90
49465;DHT22;35358;49.342;8.802;2022-11-24T06:14:13;8.90;99.90
49465;DHT22;35358;49.342;8.802;2022-11-24T06:16:41;8.90;99.90
49465;DHT22;35358;49.342;8.802;2022-11-24T06:19:10;8.90;99.90
49465;DHT22;35358;49.342;8.802;2022-11-24T06:21:38;8.90;99.90
49465;DHT22;35358;49.342;8.802;2022-11-24T06:24:04;8.90;99.90
49465;DHT22;35358;49.342;8.802;2022-11-24T06:26:30;8.90;99.90
49465;DHT22;35358;49.342;8.802;2022-11-24T06:29:02;8.90;99.90
49465;DHT22;35358;49.342;8.802;2022-11-24T06:31:28;8.90;99.90
49465;DHT22;35358;49.342;8.802;2022-11-24T06:33:53;8.90;99.90
49465;DHT22;35358;49.342;8.802;2022-11-24T06:36:19;8.80;99.90
49465;DHT22;35358;49.342;8.802;2022-11-24T06:38:46;8.70;99.90
49465;DHT22;35358;49.342;8.802;2022-11-24T06:41:15;8.70;99.90
49465;DHT22;35358;49.342;8.802;2022-11-24T06:43:41;8.70;99.90
49465;DHT22;35358;49.342;8.802;2022-11-24T06:46:09;8.70;99.90
49465;DHT22;35358;49.342;8.802;2022-11-24T06:48:35;8.60;99.90
49465;DHT22;35358;49.342;8.802;2022-11-24T06:51:06;8.60;99.90
49465;DHT22;35358;49.342;8.802;2022-11-24T06:53:36;8.60;99.90
49465;DHT22;35358;49.342;8.802;2022-11-24T06:56:06;8.60;99.90
49465;DHT22;35358;49.342;8.802;2022-11-24T06:58:39;8.60;99.90
49465;DHT22;35358;49.342;8.802;2022-11-24T07:01:05;8.50;99.90
49465;DHT22;35358;49.342;8.802;2022-11-24T07:03:31;8.50;99.90
49465;DHT22;35358;49.342;8.802;2022-11-24T07:05:57;8.50;99.90
49465;DHT22;35358;49.342;8.802;2022-11-24T07:08:25;8.50;99.90
49465;DHT22;35358;49.342;8.802;2022-11-24T07:10:53;8.50;99.90
49465;DHT22;35358;49.342;8.802;2022-11-24T07:13:19;8.50;99.90
49465;DHT22;35358;49.342;8.802;2022-11-24T07:15:45;8.50;99.90
49465;DHT22;35358;49.342;8.802;2022-11-24T07:18:13;8.40;99.90
49465;DHT22;35358;49.342;8.802;2022-11-24T07:20:39;8.40;99.90
49465;DHT22;35358;49.342;8.802;2022-11-24T07:23:08;8.40;99.90
49465;DHT22;35358;49.342;8.802;2022-11-24T07:25:34;8.40;99.90
49465;DHT22;35358;49.342;8.802;2022-11-24T07:27:59;8.40;99.90
49465;DHT22;35358;49.342;8.802;2022-11-24T07:30:26;8.40;99.90
49465;DHT22;35358;49.342;8.802;2022-11-24T07:32:58;8.40;99.90
49465;DHT22;35358;49.342;8.802;2022-11-24T07:35:27;8.40;99.90
49465;DHT22;35358;49.342;8.802;2022-11-24T07:37:57;8.40;99.90
49465;DHT22;35358;49.342;8.802;2022-11-24T07:40:23;8.40;99.90
49465;DHT22;35358;49.342;8.802;2022-11-24T07:42:51;8.40;99.90
49465;DHT22;35358;49.342;8.802;2022-11-24T07:45:17;8.40;99.90
49465;DHT22;35358;49.342;8.802;2022-11-24T07:47:45;8.40;99.90
49465;DHT22;35358;49.342;8.802;2022-11-24T07:50:13;8.40;99.90
49465;DHT22;35358;49.342;8.802;2022-11-24T07:52:41;8.40;99.90
49465;DHT22;35358;49.342;8.802;2022-11-24T07:55:07;8.40;99.90
49465;DHT22;35358;49.342;8.802;2022-11-24T07:57:33;8.50;99.90
49465;DHT22;35358;49.342;8.802;2022-11-24T07:59:58;8.40;99.90
49465;DHT22;35358;49.342;8.802;2022-11-24T08:02:24;8.50;99.90
49465;DHT22;35358;49.342;8.802;2022-11-24T08:04:52;8.50;99.90
49465;DHT22;35358;49.342;8.802;2022-11-24T08:07:25;8.40;99.90
49465;DHT22;35358;49.342;8.802;2022-11-24T08:09:50;8.50;99.90
49465;DHT22;35358;49.342;8.802;2022-11-24T08:12:17;8.50;99.90
49465;DHT22;35358;49.342;8.802;2022-11-24T08:14:49;8.40;99.90
49465;DHT22;35358;49.342;8.802;2022-11-24T08:17:19;8.50;99.90
49465;DHT22;35358;49.342;8.802;2022-11-24T08:19:45;8.40;99.90
49465;DHT22;35358;49.342;8.802;2022-11-24T08:22:13;8.40;99.90
49465;DHT22;35358;49.342;8.802;2022-11-24T08:24:38;8.40;99.90
49465;DHT22;35358;49.342;8.802;2022-11-24T08:27:10;8.40;99.90
49465;DHT22;35358;49.342;8.802;2022-11-24T08:29:36;8.40;99.90
49465;DHT22;35358;49.342;8.802;2022-11-24T08:32:01;8.40;99.90
49465;DHT22;35358;49.342;8.802;2022-11-24T08:34:30;8.50;99.90
49465;DHT22;35358;49.342;8.802;2022-11-24T08:36:55;8.50;99.90
49465;DHT22;35358;49.342;8.802;2022-11-24T08:39:21;8.50;99.90
49465;DHT22;35358;49.342;8.802;2022-11-24T08:41:46;8.50;99.90
49465;DHT22;35358;49.342;8.802;2022-11-24T08:44:12;8.60;99.90
49465;DHT22;35358;49.342;8.802;2022-11-24T08:46:40;8.60;99.90
49465;DHT22;35358;49.342;8.802;2022-11-24T08:49:08;8.60;99.90
49465;DHT22;35358;49.342;8.802;2022-11-24T08:51:36;8.60;99.90
49465;DHT22;35358;49.342;8.802;2022-11-24T08:54:02;8.60;99.90
49465;DHT22;35358;49.342;8.802;2022-11-24T08:56:31;8.60;99.90
49465;DHT22;35358;49.342;8.802;2022-11-24T08:58:59;8.60;99.90
49465;DHT22;35358;49.342;8.802;2022-11-24T09:01:28;8.60;99.90
49465;DHT22;35358;49.342;8.802;2022-11-24T09:03:58;8.60;99.90
49465;DHT22;35358;49.342;8.802;2022-11-24T09:06:28;8.60;99.90
49465;DHT22;35358;49.342;8.802;2022-11-24T09:08:57;8.70;99.90
49465;DHT22;35358;49.342;8.802;2022-11-24T09:11:26;8.70;99.90
49465;DHT22;35358;49.342;8.802;2022-11-24T09:13:52;8.70;99.90
49465;DHT22;35358;49.342;8.802;2022-11-24T09:16:20;8.70;99.90
49465;DHT22;35358;49.342;8.802;2022-11-24T09:18:47;8.70;99.90
49465;DHT22;35358;49.342;8.802;2022-11-24T09:21:20;8.80;99.90
49465;DHT22;35358;49.342;8.802;2022-11-24T09:23:47;8.80;99.90
49465;DHT22;35358;49.342;8.802;2022-11-24T09:28:40;8.70;99.90
49465;DHT22;35358;49.342;8.802;2022-11-24T09:31:11;8.70;99.90
49465;DHT22;35358;49.342;8.802;2022-11-24T09:33:37;8.70;99.90
49465;DHT22;35358;49.342;8.802;2022-11-24T09:36:08;8.70;99.90
49465;DHT22;35358;49.342;8.802;2022-11-24T09:38:33;8.70;99.90
49465;DHT22;35358;49.342;8.802;2022-11-24T09:41:24;8.80;99.90
49465;DHT22;35358;49.342;8.802;2022-11-24T09:49:32;8.90;99.90
49465;DHT22;35358;49.342;8.802;2022-11-24T09:52:12;8.90;99.90
49465;DHT22;35358;49.342;8.802;2022-11-24T09:54:48;8.90;99.90
49465;DHT22;35358;49.342;8.802;2022-11-24T09:57:15;8.90;99.90
49465;DHT22;35358;49.342;8.802;2022-11-24T09:59:45;9.10;99.90
49465;DHT22;35358;49.342;8.802;2022-11-24T10:02:13;9.20;99.90
49465;DHT22;35358;49.342;8.802;2022-11-24T10:04:41;9.30;99.90
49465;DHT22;35358;49.342;8.802;2022-11-24T10:07:31;9.50;99.90
49465;DHT22;35358;49.342;8.802;2022-11-24T10:10:54;9.50;99.90
49465;DHT22;35358;49.342;8.802;2022-11-24T10:22:00;9.40;99.90
49465;DHT22;35358;49.342;8.802;2022-11-24T10:30:22;9.30;99.90
49465;DHT22;35358;49.342;8.802;2022-11-24T10:40:50;9.60;99.90
49465;DHT22;35358;49.342;8.802;2022-11-24T10:43:20;9.60;99.90
49465;DHT22;35358;49.342;8.802;2022-11-24T10:45:45;9.60;99.90
49465;DHT22;35358;49.342;8.802;2022-11-24T10:48:24;9.60;99.90
49465;DHT22;35358;49.342;8.802;2022-11-24T10:51:00;9.70;99.90
49465;DHT22;35358;49.342;8.802;2022-11-24T10:53:34;9.70;99.90
49465;DHT22;35358;49.342;8.802;2022-11-24T10:56:04;9.80;99.90
49465;DHT22;35358;49.342;8.802;2022-11-24T10:58:39;10.10;99.90
49465;DHT22;35358;49.342;8.802;2022-11-24T11:03:52;10.00;99.90
49465;DHT22;35358;49.342;8.802;2022-11-24T11:06:30;10.20;99.90
49465;DHT22;35358;49.342;8.802;2022-11-24T11:11:36;10.20;99.90
49465;DHT22;35358;49.342;8.802;2022-11-24T11:14:09;10.00;99.90
49465;DHT22;35358;49.342;8.802;2022-11-24T11:22:45;9.80;99.90
49465;DHT22;35358;49.342;8.802;2022-11-24T11:24:47;9.80;99.90
49465;DHT22;35358;49.342;8.802;2022-11-24T11:27:26;9.90;99.90
49465;DHT22;35358;49.342;8.802;2022-11-24T11:29:52;9.90;99.90
49465;DHT22;35358;49.342;8.802;2022-11-24T11:34:51;9.90;99.90
49465;DHT22;35358;49.342;8.802;2022-11-24T11:37:19;10.00;99.90
49465;DHT22;35358;49.342;8.802;2022-11-24T11:39:47;9.90;99.90
49465;DHT22;35358;49.342;8.802;2022-11-24T11:47:35;9.80;99.90
49465;DHT22;35358;49.342;8.802;2022-11-24T11:50:46;9.80;99.90
49465;DHT22;35358;49.342;8.802;2022-11-24T12:01:35;10.20;99.90
49465;DHT22;35358;49.342;8.802;2022-11-24T12:06:55;10.30;99.90
49465;DHT22;35358;49.342;8.802;2022-11-24T12:17:38;10.40;99.90
49465;DHT22;35358;49.342;8.802;2022-11-24T12:28:49;10.60;99.90
49465;DHT22;35358;49.342;8.802;2022-11-24T12:31:44;10.70;99.90
49465;DHT22;35358;49.342;8.802;2022-11-24T12:48:56;10.30;99.90
49465;DHT22;35358;49.342;8.802;2022-11-24T12:51:32;10.30;99.90
49465;DHT22;35358;49.342;8.802;2022-11-24T12:54:02;10.20;99.90
49465;DHT22;35358;49.342;8.802;2022-11-24T12:56:37;10.20;99.90
49465;DHT22;35358;49.342;8.802;2022-11-24T13:02:14;10.30;99.90
49465;DHT22;35358;49.342;8.802;2022-11-24T13:07:38;10.30;99.90
49465;DHT22;35358;49.342;8.802;2022-11-24T13:13:02;10.50;99.90
49465;DHT22;35358;49.342;8.802;2022-11-24T13:15:29;10.60;99.90
49465;DHT22;35358;49.342;8.802;2022-11-24T13:17:56;10.70;99.90
49465;DHT22;35358;49.342;8.802;2022-11-24T13:20:31;10.80;99.90
49465;DHT22;35358;49.342;8.802;2022-11-24T13:23:02;10.80;99.90
49465;DHT22;35358;49.342;8.802;2022-11-24T13:25:32;10.80;99.90
49465;DHT22;35358;49.342;8.802;2022-11-24T13:28:00;10.70;99.90
49465;DHT22;35358;49.342;8.802;2022-11-24T13:36:10;10.50;99.90
49465;DHT22;35358;49.342;8.802;2022-11-24T13:38:50;10.40;99.90
49465;DHT22;35358;49.342;8.802;2022-11-24T13:47:02;10.20;99.90
49465;DHT22;35358;49.342;8.802;2022-11-24T13:49:37;10.20;99.90
49465;DHT22;35358;49.342;8.802;2022-11-24T13:54:59;10.30;99.90
49465;DHT22;35358;49.342;8.802;2022-11-24T13:57:39;10.30;99.90
49465;DHT22;35358;49.342;8.802;2022-11-24T14:00:30;10.20;99.90
49465;DHT22;35358;49.342;8.802;2022-11-24T14:03:02;10.20;99.90
49465;DHT22;35358;49.342;8.802;2022-11-24T14:05:38;10.30;99.90
49465;DHT22;35358;49.342;8.802;2022-11-24T14:08:15;10.20;99.90
49465;DHT22;35358;49.342;8.802;2022-11-24T14:10:51;10.20;99.90
49465;DHT22;35358;49.342;8.802;2022-11-24T14:13:29;10.20;99.90
49465;DHT22;35358;49.342;8.802;2022-11-24T14:18:34;10.30;99.90
49465;DHT22;35358;49.342;8.802;2022-11-24T14:21:22;10.30;99.90
49465;DHT22;35358;49.342;8.802;2022-11-24T14:23:57;10.40;99.90
49465;DHT22;35358;49.342;8.802;2022-11-24T14:26:34;10.40;99.90
49465;DHT22;35358;49.342;8.802;2022-11-24T14:29:15;10.40;99.90
49465;DHT22;35358;49.342;8.802;2022-11-24T14:31:52;10.50;99.90
49465;DHT22;35358;49.342;8.802;2022-11-24T14:34:21;10.60;99.90
49465;DHT22;35358;49.342;8.802;2022-11-24T14:36:50;10.60;99.90
49465;DHT22;35358;49.342;8.802;2022-11-24T14:39:20;10.50;99.90
49465;DHT22;35358;49.342;8.802;2022-11-24T14:42:00;10.60;99.90
49465;DHT22;35358;49.342;8.802;2022-11-24T14:44:34;10.70;99.90
49465;DHT22;35358;49.342;8.802;2022-11-24T14:47:21;10.80;99.90
49465;DHT22;35358;49.342;8.802;2022-11-24T14:49:51;10.70;99.90
49465;DHT22;35358;49.342;8.802;2022-11-24T14:52:21;10.60;99.90
49465;DHT22;35358;49.342;8.802;2022-11-24T14:54:56;10.50;99.90
49465;DHT22;35358;49.342;8.802;2022-11-24T14:57:30;10.50;99.90
49465;DHT22;35358;49.342;8.802;2022-11-24T15:05:09;10.50;99.90
49465;DHT22;35358;49.342;8.802;2022-11-24T15:07:36;11.00;99.90
49465;DHT22;35358;49.342;8.802;2022-11-24T15:10:27;10.90;99.90
49465;DHT22;35358;49.342;8.802;2022-11-24T15:12:57;10.70;99.90
49465;DHT22;35358;49.342;8.802;2022-11-24T15:15:47;10.50;99.90
49465;DHT22;35358;49.342;8.802;2022-11-24T15:21:11;10.30;99.90
49465;DHT22;35358;49.342;8.802;2022-11-24T15:23:37;10.30;99.90
49465;DHT22;35358;49.342;8.802;2022-11-24T15:28:34;10.10;99.90
49465;DHT22;35358;49.342;8.802;2022-11-24T15:31:04;10.10;99.90
49465;DHT22;35358;49.342;8.802;2022-11-24T15:33:30;10.10;99.90
49465;DHT22;35358;49.342;8.802;2022-11-24T15:35:56;10.10;99.90
49465;DHT22;35358;49.342;8.802;2022-11-24T15:38:25;10.10;99.90
49465;DHT22;35358;49.342;8.802;2022-11-24T15:40:56;10.00;99.90
49465;DHT22;35358;49.342;8.802;2022-11-24T15:43:38;10.00;99.90
49465;DHT22;35358;49.342;8.802;2022-11-24T15:46:05;10.00;99.90
49465;DHT22;35358;49.342;8.802;2022-11-24T15:48:34;9.90;99.90
49465;DHT22;35358;49.342;8.802;2022-11-24T15:51:01;9.90;99.90
49465;DHT22;35358;49.342;8.802;2022-11-24T15:53:37;9.80;99.90
49465;DHT22;35358;49.342;8.802;2022-11-24T15:56:06;9.70;99.90
49465;DHT22;35358;49.342;8.802;2022-11-24T15:58:33;9.60;99.90
49465;DHT22;35358;49.342;8.802;2022-11-24T16:00:59;9.60;99.90
49465;DHT22;35358;49.342;8.802;2022-11-24T16:03:24;9.60;99.90
49465;DHT22;35358;49.342;8.802;2022-11-24T16:05:53;9.60;99.90
49465;DHT22;35358;49.342;8.802;2022-11-24T16:08:21;9.60;99.90
49465;DHT22;35358;49.342;8.802;2022-11-24T16:10:47;9.60;99.90
49465;DHT22;35358;49.342;8.802;2022-11-24T16:13:15;9.50;99.90
49465;DHT22;35358;49.342;8.802;2022-11-24T16:15:40;9.50;99.90
49465;DHT22;35358;49.342;8.802;2022-11-24T16:18:08;9.50;99.90
49465;DHT22;35358;49.342;8.802;2022-11-24T16:20:34;9.50;99.90
49465;DHT22;35358;49.342;8.802;2022-11-24T16:23:04;9.40;99.90
49465;DHT22;35358;49.342;8.802;2022-11-24T16:25:32;9.40;99.90
49465;DHT22;35358;49.342;8.802;2022-11-24T16:27:58;9.30;99.90
49465;DHT22;35358;49.342;8.802;2022-11-24T16:30:23;9.20;99.90
49465;DHT22;35358;49.342;8.802;2022-11-24T16:32:52;9.10;99.90
49465;DHT22;35358;49.342;8.802;2022-11-24T16:35:20;9.00;99.90
49465;DHT22;35358;49.342;8.802;2022-11-24T16:37:45;9.00;99.90
49465;DHT22;35358;49.342;8.802;2022-11-24T16:40:13;8.90;99.90
49465;DHT22;35358;49.342;8.802;2022-11-24T16:42:42;8.80;99.90
49465;DHT22;35358;49.342;8.802;2022-11-24T16:45:10;8.70;99.90
49465;DHT22;35358;49.342;8.802;2022-11-24T16:47:40;8.40;99.90
49465;DHT22;35358;49.342;8.802;2022-11-24T16:50:11;8.30;99.90
49465;DHT22;35358;49.342;8.802;2022-11-24T16:52:39;8.20;99.90
49465;DHT22;35358;49.342;8.802;2022-11-24T16:55:05;8.20;99.90
49465;DHT22;35358;49.342;8.802;2022-11-24T16:57:31;8.00;99.90
49465;DHT22;35358;49.342;8.802;2022-11-24T16:59:57;7.90;99.90
49465;DHT22;35358;49.342;8.802;2022-11-24T17:02:22;7.80;99.90
49465;DHT22;35358;49.342;8.802;2022-11-24T17:04:48;7.80;99.90
49465;DHT22;35358;49.342;8.802;2022-11-24T17:07:16;7.80;99.90
49465;DHT22;35358;49.342;8.802;2022-11-24T17:09:42;7.70;99.90
49465;DHT22;35358;49.342;8.802;2022-11-24T17:12:12;7.70;99.90
49465;DHT22;35358;49.342;8.802;2022-11-24T17:14:42;7.70;99.90
49465;DHT22;35358;49.342;8.802;2022-11-24T17:17:08;7.70;99.90
49465;DHT22;35358;49.342;8.802;2022-11-24T17:19:34;7.60;99.90
49465;DHT22;35358;49.342;8.802;2022-11-24T17:21:59;7.50;99.90
49465;DHT22;35358;49.342;8.802;2022-11-24T17:24:27;7.50;99.90
49465;DHT22;35358;49.342;8.802;2022-11-24T17:26:55;7.30;99.90
49465;DHT22;35358;49.342;8.802;2022-11-24T17:29:21;7.30;99.90
49465;DHT22;35358;49.342;8.802;2022-11-24T17:31:46;7.20;99.90
49465;DHT22;35358;49.342;8.802;2022-11-24T17:34:14;7.10;99.90
49465;DHT22;35358;49.342;8.802;2022-11-24T17:36:42;7.00;99.90
49465;DHT22;35358;49.342;8.802;2022-11-24T17:39:10;6.90;99.90
49465;DHT22;35358;49.342;8.802;2022-11-24T17:41:36;6.90;99.90
49465;DHT22;35358;49.342;8.802;2022-11-24T17:44:01;6.80;99.90
49465;DHT22;35358;49.342;8.802;2022-11-24T17:46:28;6.70;99.90
49465;DHT22;35358;49.342;8.802;2022-11-24T17:48:57;6.60;99.90
49465;DHT22;35358;49.342;8.802;2022-11-24T17:51:25;6.50;99.90
49465;DHT22;35358;49.342;8.802;2022-11-24T17:53:52;6.50;99.90
49465;DHT22;35358;49.342;8.802;2022-11-24T17:56:21;6.40;99.90
49465;DHT22;35358;49.342;8.802;2022-11-24T17:58:57;6.40;99.90
49465;DHT22;35358;49.342;8.802;2022-11-24T18:01:27;6.30;99.90
49465;DHT22;35358;49.342;8.802;2022-11-24T18:03:57;6.20;99.90
49465;DHT22;35358;49.342;8.802;2022-11-24T18:06:26;6.20;99.90
49465;DHT22;35358;49.342;8.802;2022-11-24T18:08:54;6.30;99.90